createdAt,value
2023-11-09T00:00:11.339Z,60.84
2023-11-09T00:02:59.216Z,56.35
2023-11-09T00:05:27.173Z,57.95
2023-11-09T00:07:55.084Z,60.13
2023-11-09T00:10:22.926Z,61.88
2023-11-09T00:12:52.398Z,63.70
2023-11-09T00:15:26.076Z,60.89
2023-11-09T00:17:55.095Z,56.49
2023-11-09T00:20:23.208Z,57.45
2023-11-09T00:22:52.584Z,59.75
2023-11-09T00:25:20.569Z,61.52
2023-11-09T00:27:48.371Z,63.48
2023-11-09T00:30:16.243Z,60.77
2023-11-09T00:32:44.076Z,56.61
2023-11-09T00:35:13.425Z,57.52
2023-11-09T00:37:42.164Z,59.77
2023-11-09T00:40:12.059Z,61.61
2023-11-09T00:42:40.383Z,63.59
2023-11-09T00:45:09.212Z,60.70
2023-11-09T00:47:37.140Z,56.59
2023-11-09T00:50:06.368Z,57.75
2023-11-09T00:52:34.124Z,59.82
2023-11-09T00:55:02.284Z,61.56
2023-11-09T00:57:33.101Z,63.59
2023-11-09T01:00:00.966Z,61.13
2023-11-09T01:02:35.534Z,56.80
2023-11-09T01:05:03.679Z,57.55
2023-11-09T01:07:31.537Z,59.67
2023-11-09T01:10:00.215Z,61.37
2023-11-09T01:12:28.585Z,63.27
2023-11-09T01:14:56.409Z,60.87
2023-11-09T01:17:24.147Z,56.63
2023-11-09T01:19:52.195Z,57.31
2023-11-09T01:22:21.096Z,59.40
2023-11-09T01:24:48.844Z,61.09
2023-11-09T01:27:16.641Z,62.89
2023-11-09T01:29:44.420Z,63.03
2023-11-09T01:32:12.548Z,58.64
2023-11-09T01:34:40.466Z,56.80
2023-11-09T01:37:12.086Z,58.71
2023-11-09T01:39:41.083Z,60.64
2023-11-09T01:42:11.475Z,62.11
2023-11-09T01:44:39.318Z,63.92
2023-11-09T01:47:08.404Z,60.60
2023-11-09T01:49:37.244Z,56.17
2023-11-09T01:52:06.010Z,57.02
2023-11-09T01:54:35.393Z,59.21
2023-11-09T01:57:04.549Z,61.03
2023-11-09T01:59:33.856Z,62.82
2023-11-09T02:02:02.972Z,62.92
2023-11-09T02:04:30.906Z,58.65
2023-11-09T02:06:59.019Z,56.32
2023-11-09T02:09:28.548Z,58.34
2023-11-09T02:11:56.366Z,60.39
2023-11-09T02:14:24.481Z,62.02
2023-11-09T02:16:52.307Z,63.92
2023-11-09T02:19:20.827Z,60.80
2023-11-09T02:21:53.569Z,56.54
2023-11-09T02:24:21.523Z,57.32
2023-11-09T02:26:49.833Z,59.31
2023-11-09T02:29:21.424Z,61.11
2023-11-09T02:31:49.225Z,62.63
2023-11-09T02:34:21.998Z,63.57
2023-11-09T02:36:50.586Z,59.68
2023-11-09T02:39:18.477Z,56.14
2023-11-09T02:41:46.798Z,57.61
2023-11-09T02:44:14.620Z,59.76
2023-11-09T02:46:42.416Z,61.48
2023-11-09T02:49:10.576Z,63.48
2023-11-09T02:51:38.537Z,60.84
2023-11-09T02:54:06.536Z,56.35
2023-11-09T02:56:34.626Z,57.11
2023-11-09T02:59:03.538Z,59.11
2023-11-09T03:01:32.273Z,60.76
2023-11-09T03:04:00.117Z,62.15
2023-11-09T03:06:28.332Z,64.02
2023-11-09T03:08:56.223Z,60.93
2023-11-09T03:11:24.194Z,56.19
2023-11-09T03:13:52.076Z,57.16
2023-11-09T03:16:22.849Z,59.35
2023-11-09T03:18:50.859Z,61.26
2023-11-09T03:21:18.585Z,63.30
2023-11-09T03:23:48.628Z,60.68
2023-11-09T03:26:16.716Z,56.28
2023-11-09T03:28:44.495Z,57.32
2023-11-09T03:31:13.272Z,59.48
2023-11-09T03:33:41.062Z,61.21
2023-11-09T03:36:08.995Z,62.84
2023-11-09T03:38:36.815Z,62.74
2023-11-09T03:41:04.893Z,58.66
2023-11-09T03:43:32.731Z,56.33
2023-11-09T03:46:01.108Z,58.39
2023-11-09T03:48:29.137Z,60.23
2023-11-09T03:50:56.907Z,61.60
2023-11-09T03:53:24.698Z,63.92
2023-11-09T03:55:52.579Z,61.02
2023-11-09T03:58:20.408Z,56.69
2023-11-09T04:00:49.050Z,57.47
2023-11-09T04:03:16.833Z,59.66
2023-11-09T04:05:44.711Z,61.60
2023-11-09T04:08:12.743Z,63.57
2023-11-09T04:10:41.135Z,60.92
2023-11-09T04:13:09.493Z,56.67
2023-11-09T04:15:37.734Z,57.53
2023-11-09T04:18:05.704Z,59.80
2023-11-09T04:20:33.566Z,61.69
2023-11-09T04:23:01.792Z,63.74
2023-11-09T04:25:30.763Z,61.22
2023-11-09T04:27:58.740Z,56.72
2023-11-09T04:30:29.698Z,57.53
2023-11-09T04:32:59.294Z,59.78
2023-11-09T04:35:27.405Z,61.52
2023-11-09T04:37:55.998Z,63.62
2023-11-09T04:40:26.618Z,61.15
2023-11-09T04:42:58.038Z,56.98
2023-11-09T04:45:27.192Z,57.78
2023-11-09T04:47:59.909Z,60.01
2023-11-09T04:50:32.480Z,62.52
2023-11-09T04:53:20.823Z,62.80
2023-11-09T04:55:55.109Z,57.69
2023-11-09T04:58:41.513Z,57.88
2023-11-09T05:01:27.625Z,60.18
2023-11-09T05:04:13.675Z,62.12
2023-11-09T05:06:50.317Z,64.09
2023-11-09T05:09:21.153Z,60.08
2023-11-09T05:11:49.262Z,56.48
2023-11-09T05:14:18.215Z,58.11
2023-11-09T05:16:46.078Z,60.62
2023-11-09T05:19:14.210Z,62.22
2023-11-09T05:21:42.346Z,63.98
2023-11-09T05:24:10.170Z,61.04
2023-11-09T05:26:38.107Z,56.77
2023-11-09T05:29:06.592Z,57.70
2023-11-09T05:31:38.251Z,60.02
2023-11-09T05:34:06.241Z,62.33
2023-11-09T05:36:35.757Z,63.13
2023-11-09T05:39:07.309Z,59.53
2023-11-09T05:41:36.130Z,55.98
2023-11-09T05:44:04.485Z,57.75
2023-11-09T05:46:32.325Z,60.07
2023-11-09T05:49:00.457Z,61.60
2023-11-09T05:51:29.648Z,63.62
2023-11-09T05:53:58.664Z,61.04
2023-11-09T05:56:29.077Z,56.66
2023-11-09T05:58:57.323Z,57.44
2023-11-09T06:01:26.063Z,59.52
2023-11-09T06:03:55.352Z,61.58
2023-11-09T06:06:23.138Z,63.38
2023-11-09T06:08:51.066Z,61.01
2023-11-09T06:11:18.876Z,56.59
2023-11-09T06:13:46.735Z,57.21
2023-11-09T06:16:15.479Z,59.42
2023-11-09T06:18:44.128Z,61.28
2023-11-09T06:21:11.958Z,62.62
2023-11-09T06:23:39.903Z,63.72
2023-11-09T06:26:07.691Z,59.91
2023-11-09T06:28:35.595Z,56.34
2023-11-09T06:31:05.598Z,58.06
2023-11-09T06:33:34.728Z,60.35
2023-11-09T06:36:02.911Z,63.08
2023-11-09T06:38:31.587Z,61.19
2023-11-09T06:40:59.381Z,56.81
2023-11-09T06:43:27.245Z,57.54
2023-11-09T06:45:57.408Z,59.95
2023-11-09T06:48:26.187Z,61.99
2023-11-09T06:50:55.311Z,63.17
2023-11-09T06:53:23.508Z,59.03
2023-11-09T06:55:52.595Z,57.55
2023-11-09T06:58:20.560Z,59.48
2023-11-09T07:00:48.469Z,61.11
2023-11-09T07:03:19.279Z,63.30
2023-11-09T07:05:47.368Z,59.83
2023-11-09T07:08:15.308Z,56.77
2023-11-09T07:10:45.125Z,58.26
2023-11-09T07:13:13.266Z,59.89
2023-11-09T07:15:41.565Z,61.46
2023-11-09T07:18:11.563Z,62.76
2023-11-09T07:20:39.456Z,62.38
2023-11-09T07:23:10.678Z,58.25
2023-11-09T07:25:38.859Z,57.06
2023-11-09T07:28:08.672Z,59.04
2023-11-09T07:30:36.994Z,60.66
2023-11-09T07:33:06.200Z,61.75
2023-11-09T07:35:35.895Z,63.35
2023-11-09T07:38:03.827Z,59.77
2023-11-09T07:40:31.850Z,56.26
2023-11-09T07:43:00.297Z,57.64
2023-11-09T07:45:28.438Z,59.46
2023-11-09T07:47:56.532Z,60.91
2023-11-09T07:50:25.131Z,62.21
2023-11-09T07:52:54.108Z,62.61
2023-11-09T07:55:22.014Z,58.21
2023-11-09T07:57:52.682Z,57.43
2023-11-09T08:00:21.379Z,58.75
2023-11-09T08:02:49.229Z,60.03
2023-11-09T08:05:17.524Z,61.12
2023-11-09T08:07:45.893Z,62.20
2023-11-09T08:10:14.038Z,63.22
2023-11-09T08:12:42.735Z,59.37
2023-11-09T08:15:15.199Z,55.36
2023-11-09T08:17:44.154Z,56.63
2023-11-09T08:20:16.946Z,58.67
2023-11-09T08:22:47.157Z,59.62
2023-11-09T08:25:17.145Z,60.82
2023-11-09T08:27:46.025Z,61.44
2023-11-09T08:30:17.031Z,61.93
2023-11-09T08:32:48.784Z,62.59
2023-11-09T08:35:17.391Z,58.42
2023-11-09T08:37:45.556Z,56.82
2023-11-09T08:40:28.933Z,58.52
2023-11-09T08:43:00.944Z,59.84
2023-11-09T08:45:30.749Z,60.59
2023-11-09T08:48:00.263Z,61.58
2023-11-09T08:50:28.430Z,62.04
2023-11-09T08:52:56.321Z,62.92
2023-11-09T08:55:24.608Z,58.29
2023-11-09T08:57:53.423Z,56.04
2023-11-09T09:00:24.874Z,57.42
2023-11-09T09:02:53.508Z,58.71
2023-11-09T09:05:25.341Z,59.50
2023-11-09T09:07:58.840Z,60.17
2023-11-09T09:10:29.448Z,60.49
2023-11-09T09:13:03.657Z,60.72
2023-11-09T09:15:31.595Z,61.07
2023-11-09T09:17:59.961Z,60.81
2023-11-09T09:20:29.373Z,60.52
2023-11-09T09:23:00.817Z,60.23
2023-11-09T09:25:28.750Z,59.54
2023-11-09T09:27:56.901Z,59.34
2023-11-09T09:30:26.632Z,58.69
2023-11-09T09:32:56.912Z,58.72
2023-11-09T09:35:26.486Z,57.65
2023-11-09T09:38:04.238Z,57.23
2023-11-09T09:40:40.884Z,56.78
2023-11-09T09:43:16.545Z,55.98
2023-11-09T09:45:48.551Z,56.39
2023-11-09T09:48:17.437Z,56.43
2023-11-09T09:50:47.513Z,56.50
2023-11-09T09:53:21.622Z,56.35
2023-11-09T09:55:50.781Z,56.40
2023-11-09T09:58:21.300Z,56.26
2023-11-09T10:00:56.381Z,56.76
2023-11-09T10:03:26.927Z,56.47
2023-11-09T10:05:55.466Z,56.36
2023-11-09T10:08:25.191Z,55.47
2023-11-09T10:10:55.649Z,54.48
2023-11-09T10:13:26.447Z,54.20
2023-11-09T10:15:59.652Z,53.77
2023-11-09T10:18:29.673Z,53.27
2023-11-09T10:20:59.607Z,53.35
2023-11-09T10:23:27.629Z,53.19
2023-11-09T10:26:00.598Z,53.73
2023-11-09T10:28:33.548Z,53.94
2023-11-09T10:31:02.226Z,53.72
2023-11-09T10:33:31.474Z,53.88
2023-11-09T10:36:02.625Z,53.62
2023-11-09T10:38:37.316Z,53.42
2023-11-09T10:41:16.357Z,54.06
2023-11-09T10:44:02.983Z,54.29
2023-11-09T10:46:34.923Z,53.95
2023-11-09T10:49:05.229Z,54.09
2023-11-09T10:51:35.673Z,54.66
2023-11-09T10:54:04.433Z,54.76
2023-11-09T10:56:32.618Z,55.08
2023-11-09T10:59:01.802Z,55.21
2023-11-09T11:01:31.989Z,55.00
2023-11-09T11:04:01.866Z,54.82
2023-11-09T11:06:35.212Z,54.60
2023-11-09T11:09:09.670Z,54.82
2023-11-09T11:11:39.802Z,54.82
2023-11-09T11:14:14.169Z,55.20
2023-11-09T11:17:03.010Z,55.27
2023-11-09T11:20:03.700Z,55.44
2023-11-09T11:23:04.732Z,54.90
2023-11-09T11:25:40.102Z,54.60
2023-11-09T11:28:12.345Z,53.76
2023-11-09T11:30:41.292Z,53.33
2023-11-09T11:33:20.303Z,52.44
2023-11-09T11:35:53.628Z,51.12
2023-11-09T11:38:23.360Z,50.66
2023-11-09T11:41:13.678Z,49.56
2023-11-09T11:43:43.214Z,49.37
2023-11-09T11:46:18.789Z,48.91
2023-11-09T11:48:52.269Z,48.43
2023-11-09T11:51:28.819Z,48.14
2023-11-09T11:54:11.024Z,48.33
2023-11-09T11:56:39.796Z,47.90
2023-11-09T11:59:12.889Z,47.70
2023-11-09T12:01:41.760Z,47.62
2023-11-09T12:04:15.314Z,47.62
2023-11-09T12:06:45.800Z,47.98
2023-11-09T12:09:16.623Z,47.92
2023-11-09T12:11:51.117Z,46.88
2023-11-09T12:14:21.126Z,47.22
2023-11-09T12:16:50.023Z,46.77
2023-11-09T12:19:19.537Z,46.95
2023-11-09T12:21:48.154Z,47.36
2023-11-09T12:24:24.397Z,47.32
2023-11-09T12:27:08.687Z,47.10
2023-11-09T12:29:39.214Z,46.89
2023-11-09T12:32:08.709Z,47.01
2023-11-09T12:34:42.436Z,46.96
2023-11-09T12:37:16.193Z,47.18
2023-11-09T12:39:45.406Z,46.97
2023-11-09T12:42:20.532Z,47.13
2023-11-09T12:44:48.586Z,47.22
2023-11-09T12:47:19.082Z,47.25
2023-11-09T12:49:55.488Z,47.64
2023-11-09T12:52:27.709Z,47.98
2023-11-09T12:54:57.375Z,48.14
2023-11-09T12:57:26.323Z,48.71
2023-11-09T12:59:57.458Z,48.99
2023-11-09T13:02:43.579Z,49.45
2023-11-09T13:05:14.630Z,50.05
2023-11-09T13:07:47.844Z,50.24
2023-11-09T13:10:24.311Z,50.53
2023-11-09T13:12:56.890Z,50.87
2023-11-09T13:15:38.296Z,51.17
2023-11-09T13:18:09.937Z,51.15
2023-11-09T13:20:38.993Z,51.37
2023-11-09T13:23:12.031Z,51.52
2023-11-09T13:25:53.031Z,51.57
2023-11-09T13:28:24.580Z,51.84
2023-11-09T13:30:54.209Z,52.13
2023-11-09T13:33:35.549Z,52.34
2023-11-09T13:36:17.231Z,52.45
2023-11-09T13:39:11.729Z,52.62
2023-11-09T13:41:43.757Z,52.94
2023-11-09T13:44:13.801Z,53.14
2023-11-09T13:46:44.674Z,53.21
2023-11-09T13:49:29.252Z,53.42
2023-11-09T13:51:58.744Z,54.03
2023-11-09T13:54:40.347Z,54.46
2023-11-09T13:57:12.360Z,55.01
2023-11-09T13:59:45.079Z,55.27
2023-11-09T14:02:35.300Z,55.58
2023-11-09T14:05:11.811Z,55.98
2023-11-09T14:07:44.361Z,56.23
2023-11-09T14:10:16.134Z,56.41
2023-11-09T14:12:45.182Z,56.95
2023-11-09T14:15:26.844Z,57.55
2023-11-09T14:18:04.208Z,57.60
2023-11-09T14:20:33.963Z,58.02
2023-11-09T14:23:07.832Z,58.39
2023-11-09T14:25:40.156Z,58.51
2023-11-09T14:28:09.255Z,58.58
2023-11-09T14:30:39.903Z,58.66
2023-11-09T14:33:09.139Z,58.71
2023-11-09T14:35:43.763Z,59.01
2023-11-09T14:38:13.033Z,59.17
2023-11-09T14:40:48.585Z,59.57
2023-11-09T14:43:18.458Z,59.72
2023-11-09T14:45:47.997Z,59.84
2023-11-09T14:48:18.664Z,60.05
2023-11-09T14:50:47.082Z,59.90
2023-11-09T14:53:30.124Z,59.88
2023-11-09T14:56:02.649Z,60.01
2023-11-09T14:58:35.340Z,60.12
2023-11-09T15:01:05.836Z,60.35
2023-11-09T15:03:36.001Z,60.61
2023-11-09T15:06:13.085Z,60.71
2023-11-09T15:08:41.833Z,60.78
2023-11-09T15:11:15.804Z,60.58
2023-11-09T15:13:48.156Z,60.43
2023-11-09T15:16:20.932Z,60.58
2023-11-09T15:18:50.385Z,60.72
2023-11-09T15:21:22.511Z,60.76
2023-11-09T15:23:50.852Z,60.82
2023-11-09T15:26:19.822Z,60.99
2023-11-09T15:28:49.460Z,61.03
2023-11-09T15:31:18.928Z,61.41
2023-11-09T15:33:46.875Z,61.28
2023-11-09T15:36:14.736Z,61.25
2023-11-09T15:38:43.002Z,61.29
2023-11-09T15:41:19.935Z,61.50
2023-11-09T15:43:55.252Z,61.73
2023-11-09T15:46:24.605Z,61.73
2023-11-09T15:48:54.980Z,61.89
2023-11-09T15:51:35.446Z,62.01
2023-11-09T15:54:03.778Z,62.16
2023-11-09T15:56:32.457Z,62.05
2023-11-09T15:59:01.195Z,62.94
2023-11-09T16:01:29.168Z,60.64
2023-11-09T16:03:57.937Z,55.77
2023-11-09T16:06:25.820Z,56.12
2023-11-09T16:08:53.821Z,57.08
2023-11-09T16:11:22.323Z,57.95
2023-11-09T16:13:51.310Z,58.55
2023-11-09T16:16:19.576Z,59.04
2023-11-09T16:18:48.149Z,59.39
2023-11-09T16:21:16.143Z,59.82
2023-11-09T16:23:46.801Z,59.96
2023-11-09T16:26:16.848Z,60.22
2023-11-09T16:28:49.675Z,60.55
2023-11-09T16:31:18.636Z,60.86
2023-11-09T16:33:47.279Z,61.10
2023-11-09T16:36:17.095Z,61.31
2023-11-09T16:38:49.442Z,61.47
2023-11-09T16:41:23.703Z,61.73
2023-11-09T16:43:51.534Z,62.04
2023-11-09T16:46:19.364Z,62.18
2023-11-09T16:48:47.208Z,62.27
2023-11-09T16:51:15.226Z,63.22
2023-11-09T16:53:45.056Z,59.84
2023-11-09T16:56:13.319Z,55.97
2023-11-09T16:58:41.829Z,56.52
2023-11-09T17:01:10.086Z,57.74
2023-11-09T17:03:38.907Z,58.76
2023-11-09T17:06:07.842Z,59.33
2023-11-09T17:08:38.021Z,59.90
2023-11-09T17:11:09.404Z,60.33
2023-11-09T17:13:39.254Z,60.76
2023-11-09T17:16:07.861Z,61.26
2023-11-09T17:18:35.918Z,61.58
2023-11-09T17:21:05.720Z,62.00
2023-11-09T17:23:33.686Z,62.08
2023-11-09T17:26:01.550Z,62.98
2023-11-09T17:28:32.410Z,60.32
2023-11-09T17:31:00.438Z,55.18
2023-11-09T17:33:28.341Z,55.62
2023-11-09T17:35:57.064Z,57.10
2023-11-09T17:38:26.859Z,58.12
2023-11-09T17:40:54.859Z,58.94
2023-11-09T17:43:22.953Z,59.49
2023-11-09T17:45:51.375Z,60.10
2023-11-09T17:48:20.257Z,60.29
2023-11-09T17:50:48.141Z,60.98
2023-11-09T17:53:20.649Z,61.15
2023-11-09T17:55:48.698Z,61.32
2023-11-09T17:58:17.857Z,61.31
2023-11-09T18:00:46.189Z,61.47
2023-11-09T18:03:16.667Z,61.53
2023-11-09T18:05:46.972Z,61.67
2023-11-09T18:08:16.893Z,61.62
2023-11-09T18:10:44.878Z,61.67
2023-11-09T18:13:13.026Z,61.68
2023-11-09T18:15:42.518Z,61.54
2023-11-09T18:18:11.630Z,61.63
2023-11-09T18:20:43.414Z,61.48
2023-11-09T18:23:11.380Z,61.56
2023-11-09T18:25:39.413Z,61.51
2023-11-09T18:28:08.362Z,61.50
2023-11-09T18:30:36.625Z,61.58
2023-11-09T18:33:05.702Z,61.78
2023-11-09T18:35:33.837Z,61.98
2023-11-09T18:38:01.810Z,61.92
2023-11-09T18:40:29.786Z,61.60
2023-11-09T18:42:57.938Z,61.49
2023-11-09T18:45:25.995Z,61.47
2023-11-09T18:47:54.130Z,61.42
2023-11-09T18:52:53.801Z,61.40
2023-11-09T18:55:21.725Z,61.45
2023-11-09T18:57:49.835Z,61.57
2023-11-09T19:00:18.236Z,61.58
2023-11-09T19:05:16.978Z,61.72
2023-11-09T19:07:45.038Z,61.85
2023-11-09T19:10:13.090Z,61.86
2023-11-09T19:12:41.046Z,61.84
2023-11-09T19:15:11.902Z,61.86
2023-11-09T19:17:41.025Z,61.98
2023-11-09T19:20:10.722Z,62.01
2023-11-09T19:22:41.915Z,62.00
2023-11-09T19:25:11.172Z,62.02
2023-11-09T19:27:39.423Z,62.05
2023-11-09T19:30:10.930Z,62.04
2023-11-09T19:32:38.968Z,62.06
2023-11-09T19:35:07.243Z,62.14
2023-11-09T19:37:35.182Z,62.21
2023-11-09T19:40:03.821Z,62.15
2023-11-09T19:42:32.493Z,62.20
2023-11-09T19:45:00.886Z,62.18
2023-11-09T19:47:29.284Z,62.17
2023-11-09T19:49:57.401Z,62.22
2023-11-09T19:52:25.464Z,62.23
2023-11-09T19:54:53.378Z,62.33
2023-11-09T19:57:21.336Z,62.52
2023-11-09T19:59:49.263Z,61.45
2023-11-09T20:02:18.721Z,56.49
2023-11-09T20:04:47.036Z,56.04
2023-11-09T20:07:15.766Z,57.21
2023-11-09T20:09:43.726Z,58.04
2023-11-09T20:12:11.639Z,58.67
2023-11-09T20:14:40.502Z,59.07
2023-11-09T20:17:08.585Z,59.47
2023-11-09T20:19:36.454Z,59.59
2023-11-09T20:22:05.706Z,59.90
2023-11-09T20:24:33.772Z,60.12
2023-11-09T20:27:02.506Z,60.25
2023-11-09T20:29:30.891Z,60.44
2023-11-09T20:31:59.708Z,60.70
2023-11-09T20:34:28.882Z,60.93
2023-11-09T20:36:56.766Z,60.98
2023-11-09T20:39:24.792Z,61.11
2023-11-09T20:41:52.692Z,61.36
2023-11-09T20:44:21.031Z,61.42
2023-11-09T20:46:49.265Z,61.61
2023-11-09T20:49:17.043Z,61.71
2023-11-09T20:51:45.115Z,61.83
2023-11-09T20:54:13.058Z,61.93
2023-11-09T20:56:41.033Z,62.08
2023-11-09T20:59:10.704Z,62.19
2023-11-09T21:01:38.615Z,62.33
2023-11-09T21:04:08.081Z,62.90
2023-11-09T21:06:38.540Z,59.10
2023-11-09T21:09:06.524Z,55.69
2023-11-09T21:11:34.827Z,56.87
2023-11-09T21:14:02.673Z,57.84
2023-11-09T21:16:30.523Z,58.71
2023-11-09T21:19:01.659Z,59.12
2023-11-09T21:21:29.626Z,59.62
2023-11-09T21:23:58.618Z,60.05
2023-11-09T21:26:27.560Z,60.45
2023-11-09T21:28:55.605Z,60.98
2023-11-09T21:31:23.359Z,61.17
2023-11-09T21:33:54.622Z,61.46
2023-11-09T21:36:23.571Z,61.58
2023-11-09T21:38:51.379Z,61.85
2023-11-09T21:41:19.332Z,62.20
2023-11-09T21:43:48.167Z,62.34
2023-11-09T21:46:15.996Z,62.80
2023-11-09T21:48:44.090Z,58.55
2023-11-09T21:51:12.028Z,57.25
2023-11-09T21:53:39.897Z,57.92
2023-11-09T21:56:10.136Z,58.94
2023-11-09T21:58:38.020Z,59.60
2023-11-09T22:01:05.923Z,60.13
2023-11-09T22:03:35.204Z,60.52
2023-11-09T22:06:04.253Z,61.00
2023-11-09T22:08:32.207Z,61.41
2023-11-09T22:11:00.839Z,61.56
2023-11-09T22:13:28.868Z,61.98
2023-11-09T22:15:56.718Z,62.18
2023-11-09T22:18:24.611Z,63.05
2023-11-09T22:20:52.425Z,60.74
2023-11-09T22:23:20.374Z,55.68
2023-11-09T22:25:48.145Z,55.36
2023-11-09T22:28:16.021Z,56.61
2023-11-09T22:30:43.820Z,57.84
2023-11-09T22:33:12.984Z,58.75
2023-11-09T22:35:42.651Z,59.58
2023-11-09T22:38:10.661Z,59.93
2023-11-09T22:40:39.355Z,60.43
2023-11-09T22:43:07.994Z,60.79
2023-11-09T22:45:36.449Z,61.14
2023-11-09T22:48:04.666Z,61.82
2023-11-09T22:50:34.487Z,62.10
2023-11-09T22:53:02.300Z,62.70
2023-11-09T22:55:30.159Z,58.09
2023-11-09T22:57:57.944Z,55.89
2023-11-09T23:00:36.196Z,57.16
2023-11-09T23:03:05.548Z,58.35
2023-11-09T23:05:33.717Z,59.30
2023-11-09T23:08:01.558Z,60.06
2023-11-09T23:10:29.652Z,60.67
2023-11-09T23:12:57.444Z,61.03
2023-11-09T23:15:25.562Z,61.24
2023-11-09T23:17:53.424Z,61.45
2023-11-09T23:20:21.259Z,61.85
2023-11-09T23:22:49.088Z,62.35
2023-11-09T23:25:16.938Z,62.75
2023-11-09T23:27:44.860Z,58.94
2023-11-09T23:30:18.085Z,55.86
2023-11-09T23:32:46.359Z,56.82
2023-11-09T23:35:17.562Z,58.18
2023-11-09T23:37:47.936Z,59.28
2023-11-09T23:40:16.772Z,59.80
2023-11-09T23:42:46.321Z,60.46
2023-11-09T23:45:14.527Z,61.21
2023-11-09T23:47:42.539Z,61.42
2023-11-09T23:50:13.112Z,62.08
2023-11-09T23:52:41.555Z,62.58
2023-11-09T23:55:10.137Z,58.48
2023-11-09T23:57:37.984Z,56.15
